createdAt,value
2023-02-06T00:05:00.287Z,70.90
2023-02-06T00:10:05.778Z,70.80
2023-02-06T00:15:10.275Z,70.70
2023-02-06T00:20:14.554Z,70.60
2023-02-06T00:25:19.547Z,70.60
2023-02-06T00:30:22.980Z,70.50
2023-02-06T00:35:26.378Z,70.40
2023-02-06T00:40:31.272Z,70.30
2023-02-06T00:45:35.284Z,70.30
2023-02-06T00:50:39.669Z,70.20
2023-02-06T00:55:44.775Z,70.20
2023-02-06T01:00:48.192Z,70.20
2023-02-06T01:05:51.818Z,70.20
2023-02-06T01:10:56.997Z,70.10
2023-02-06T01:16:00.426Z,70.10
2023-02-06T01:21:08.058Z,70.10
2023-02-06T01:26:16.015Z,70.00
2023-02-06T01:31:22.141Z,69.80
2023-02-06T01:36:26.073Z,69.90
2023-02-06T01:41:31.122Z,70.00
2023-02-06T01:46:34.879Z,69.90
2023-02-06T01:51:38.737Z,69.90
2023-02-06T01:56:48.976Z,69.90
2023-02-06T02:01:52.450Z,70.00
2023-02-06T02:07:05.798Z,70.00
2023-02-06T02:12:10.410Z,70.10
2023-02-06T02:17:28.841Z,70.20
2023-02-06T02:22:45.262Z,70.10
2023-02-06T02:28:08.928Z,70.20
2023-02-06T02:33:42.376Z,70.30
2023-02-06T02:38:57.161Z,70.40
2023-02-06T02:44:06.226Z,70.80
2023-02-06T02:49:14.814Z,71.20
2023-02-06T02:54:19.930Z,71.50
2023-02-06T02:59:28.950Z,71.60
2023-02-06T03:04:38.859Z,71.50
2023-02-06T03:09:54.604Z,71.50
2023-02-06T03:15:04.111Z,71.40
2023-02-06T03:20:10.455Z,71.40
2023-02-06T03:25:19.843Z,71.00
2023-02-06T03:30:26.880Z,71.70
2023-02-06T03:35:35.191Z,70.80
2023-02-06T03:40:41.920Z,70.80
2023-02-06T03:45:48.181Z,70.80
2023-02-06T03:50:54.320Z,70.90
2023-02-06T03:56:07.510Z,71.00
2023-02-06T04:01:11.703Z,71.00
2023-02-06T04:06:15.148Z,71.00
2023-02-06T04:11:19.976Z,71.10
2023-02-06T04:16:23.467Z,71.10
2023-02-06T04:21:26.961Z,71.00
2023-02-06T04:26:31.782Z,71.00
2023-02-06T04:31:35.327Z,70.90
2023-02-06T04:36:39.215Z,70.70
2023-02-06T04:41:43.997Z,70.50
2023-02-06T04:46:47.907Z,70.50
2023-02-06T04:51:51.574Z,70.50
2023-02-06T04:56:56.703Z,70.60
2023-02-06T05:02:00.128Z,70.60
2023-02-06T05:07:05.518Z,70.60
2023-02-06T05:12:12.054Z,70.60
2023-02-06T05:17:16.846Z,70.60
2023-02-06T05:22:20.343Z,70.70
2023-02-06T05:27:25.751Z,70.70
2023-02-06T05:32:29.334Z,70.70
2023-02-06T05:37:32.827Z,70.70
2023-02-06T05:42:37.878Z,70.90
2023-02-06T05:47:41.301Z,71.00
2023-02-06T05:52:44.734Z,71.00
2023-02-06T05:57:49.998Z,71.00
2023-02-06T06:02:53.485Z,71.10
2023-02-06T06:07:57.338Z,71.20
2023-02-06T06:13:02.129Z,71.20
2023-02-06T06:18:05.683Z,71.10
2023-02-06T06:23:09.096Z,71.10
2023-02-06T06:28:13.973Z,71.10
2023-02-06T06:33:17.884Z,71.20
2023-02-06T06:38:21.358Z,71.10
2023-02-06T06:43:26.292Z,71.20
2023-02-06T06:48:30.081Z,71.30
2023-02-06T06:53:33.475Z,71.20
2023-02-06T06:58:39.149Z,71.20
2023-02-06T07:03:44.227Z,71.30
2023-02-06T07:08:47.683Z,71.60
2023-02-06T07:13:52.480Z,71.70
2023-02-06T07:18:55.952Z,71.60
2023-02-06T07:23:59.708Z,71.90
2023-02-06T07:29:04.699Z,72.20
2023-02-06T07:34:08.176Z,72.40
2023-02-06T07:39:11.571Z,72.40
2023-02-06T07:44:16.672Z,72.50
2023-02-06T07:49:20.126Z,72.50
2023-02-06T07:54:23.650Z,73.30
2023-02-06T07:59:28.793Z,72.40
2023-02-06T08:04:35.340Z,72.40
2023-02-06T08:09:38.849Z,72.30
2023-02-06T08:14:45.961Z,72.10
2023-02-06T08:19:49.939Z,72.20
2023-02-06T08:24:53.332Z,72.10
2023-02-06T08:29:59.448Z,72.00
2023-02-06T08:35:04.218Z,71.80
2023-02-06T08:40:08.764Z,71.70
2023-02-06T08:45:13.501Z,71.60
2023-02-06T08:50:17.555Z,71.60
2023-02-06T08:55:25.284Z,71.70
2023-02-06T09:00:30.333Z,71.60
2023-02-06T09:05:34.412Z,71.50
2023-02-06T09:10:38.463Z,71.20
2023-02-06T09:15:43.401Z,71.10
2023-02-06T09:20:50.482Z,71.00
2023-02-06T09:25:54.500Z,70.80
2023-02-06T09:30:59.962Z,70.40
2023-02-06T09:36:05.279Z,70.20
2023-02-06T09:41:17.175Z,69.90
2023-02-06T09:46:28.101Z,69.70
2023-02-06T09:51:41.602Z,69.40
2023-02-06T09:56:54.087Z,69.20
2023-02-06T10:02:22.146Z,69.00
2023-02-06T10:07:51.077Z,68.80
2023-02-06T10:13:01.969Z,68.20
2023-02-06T10:18:14.742Z,68.70
2023-02-06T10:23:25.446Z,67.20
2023-02-06T10:28:30.947Z,67.10
2023-02-06T10:33:42.250Z,66.90
2023-02-06T10:39:18.125Z,66.40
2023-02-06T10:44:28.469Z,65.90
2023-02-06T10:49:39.834Z,65.70
2023-02-06T10:54:52.070Z,65.40
2023-02-06T11:00:01.184Z,65.30
2023-02-06T11:05:10.667Z,65.30
2023-02-06T11:10:17.708Z,64.20
2023-02-06T11:15:26.477Z,64.70
2023-02-06T11:20:34.670Z,65.00
2023-02-06T11:25:38.586Z,64.70
2023-02-06T11:30:54.182Z,64.40
2023-02-06T11:36:00.751Z,63.70
2023-02-06T11:41:06.478Z,63.80
2023-02-06T11:46:16.923Z,62.50
2023-02-06T11:51:21.879Z,62.30
2023-02-06T11:56:26.014Z,62.40
2023-02-06T12:01:43.139Z,62.00
2023-02-06T12:06:48.649Z,61.50
2023-02-06T12:11:58.109Z,60.00
2023-02-06T12:17:04.143Z,60.30
2023-02-06T12:22:16.986Z,59.30
2023-02-06T12:27:24.918Z,61.70
2023-02-06T12:32:33.745Z,60.50
2023-02-06T12:37:45.191Z,60.70
2023-02-06T12:42:57.489Z,58.80
2023-02-06T12:48:07.658Z,57.50
2023-02-06T12:53:19.468Z,61.00
2023-02-06T12:58:28.141Z,64.00
2023-02-06T13:03:35.476Z,66.50
2023-02-06T13:08:46.006Z,67.50
2023-02-06T13:13:50.850Z,68.70
2023-02-06T13:18:54.490Z,69.10
2023-02-06T13:24:18.589Z,70.20
2023-02-06T13:29:27.036Z,70.50
2023-02-06T13:34:30.866Z,70.50
2023-02-06T13:39:35.688Z,70.70
2023-02-06T13:44:40.258Z,70.70
2023-02-06T13:50:07.245Z,71.40
2023-02-06T13:55:27.161Z,71.20
2023-02-06T14:00:34.210Z,70.70
2023-02-06T14:05:48.507Z,71.40
2023-02-06T14:11:24.426Z,71.00
2023-02-06T14:16:40.510Z,71.50
2023-02-06T14:21:52.436Z,72.80
2023-02-06T14:27:09.926Z,72.60
2023-02-06T14:32:38.983Z,72.50
2023-02-06T14:37:58.190Z,72.60
2023-02-06T14:43:07.429Z,72.80
2023-02-06T14:48:21.997Z,71.20
2023-02-06T14:53:29.848Z,69.70
2023-02-06T14:58:35.034Z,68.90
2023-02-06T15:03:40.286Z,68.30
2023-02-06T15:08:49.543Z,68.00
2023-02-06T15:13:57.248Z,67.40
2023-02-06T15:19:21.099Z,67.10
2023-02-06T15:24:50.935Z,67.80
2023-02-06T15:29:56.256Z,66.40
2023-02-06T15:35:00.675Z,65.80
2023-02-06T15:40:09.589Z,65.10
2023-02-06T15:45:21.973Z,64.80
2023-02-06T15:50:28.506Z,64.00
2023-02-06T15:55:36.805Z,63.90
2023-02-06T16:00:42.880Z,63.90
2023-02-06T16:05:46.621Z,63.90
2023-02-06T16:10:52.763Z,63.70
2023-02-06T16:16:08.447Z,63.60
2023-02-06T16:21:14.769Z,63.70
2023-02-06T16:26:20.173Z,63.60
2023-02-06T16:31:26.858Z,63.60
2023-02-06T16:36:32.638Z,63.50
2023-02-06T16:41:38.280Z,63.50
2023-02-06T16:46:43.310Z,63.60
2023-02-06T16:51:48.523Z,64.70
2023-02-06T16:56:54.246Z,63.80
2023-02-06T17:01:59.359Z,63.80
2023-02-06T17:07:03.784Z,63.80
2023-02-06T17:12:11.074Z,63.80
2023-02-06T17:17:18.495Z,63.90
2023-02-06T17:22:24.919Z,63.90
2023-02-06T17:27:28.461Z,64.10
2023-02-06T17:32:33.268Z,64.40
2023-02-06T17:37:37.128Z,64.40
2023-02-06T17:42:40.865Z,64.50
2023-02-06T17:47:46.155Z,64.40
2023-02-06T17:52:50.323Z,64.50
2023-02-06T17:57:55.388Z,64.50
2023-02-06T18:03:01.286Z,64.50
2023-02-06T18:08:05.230Z,64.60
2023-02-06T18:13:10.491Z,64.80
2023-02-06T18:18:15.353Z,64.60
2023-02-06T18:23:19.474Z,64.50
2023-02-06T18:28:23.093Z,64.50
2023-02-06T18:33:28.068Z,64.40
2023-02-06T18:38:31.866Z,64.60
2023-02-06T18:43:35.291Z,64.70
2023-02-06T18:48:40.554Z,64.90
2023-02-06T18:53:44.456Z,65.10
2023-02-06T18:58:48.200Z,65.30
2023-02-06T19:03:54.137Z,65.30
2023-02-06T19:08:58.700Z,65.20
2023-02-06T19:14:02.694Z,65.10
2023-02-06T19:19:08.627Z,65.00
2023-02-06T19:24:14.270Z,65.10
2023-02-06T19:29:34.405Z,65.50
2023-02-06T19:34:42.118Z,65.50
2023-02-06T19:39:45.735Z,65.80
2023-02-06T19:44:53.952Z,65.50
2023-02-06T19:49:59.127Z,65.40
2023-02-06T19:55:03.048Z,65.60
2023-02-06T20:00:10.476Z,65.90
2023-02-06T20:05:15.608Z,66.00
2023-02-06T20:10:19.115Z,66.00
2023-02-06T20:15:22.948Z,65.90
2023-02-06T20:20:28.264Z,65.90
2023-02-06T20:25:31.865Z,65.90
2023-02-06T20:30:36.308Z,65.90
2023-02-06T20:35:44.117Z,65.90
2023-02-06T20:40:51.440Z,66.10
2023-02-06T20:45:54.996Z,66.00
2023-02-06T20:51:00.562Z,66.00
2023-02-06T20:56:04.067Z,66.10
2023-02-06T21:01:14.011Z,66.10
2023-02-06T21:06:19.105Z,66.20
2023-02-06T21:11:23.353Z,66.30
2023-02-06T21:16:28.583Z,66.30
2023-02-06T21:21:33.831Z,67.30
2023-02-06T21:26:38.144Z,66.20
2023-02-06T21:31:41.666Z,66.20
2023-02-06T21:36:47.470Z,66.20
2023-02-06T21:41:53.822Z,66.10
2023-02-06T21:46:57.334Z,66.30
2023-02-06T21:52:02.309Z,66.30
2023-02-06T21:57:06.060Z,66.30
2023-02-06T22:02:11.418Z,66.30
2023-02-06T22:07:16.162Z,66.40
2023-02-06T22:12:19.580Z,66.50
2023-02-06T22:17:22.989Z,66.50
2023-02-06T22:22:28.069Z,66.50
2023-02-06T22:27:33.747Z,66.50
2023-02-06T22:32:38.232Z,66.60
2023-02-06T22:37:44.575Z,66.70
2023-02-06T22:42:48.145Z,66.90
2023-02-06T22:47:51.564Z,67.00
2023-02-06T22:53:19.216Z,67.00
2023-02-06T22:58:22.626Z,67.20
2023-02-06T23:03:26.028Z,67.10
2023-02-06T23:08:30.972Z,67.10
2023-02-06T23:13:34.710Z,67.10
2023-02-06T23:18:38.955Z,67.10
2023-02-06T23:23:44.263Z,67.10
2023-02-06T23:28:47.922Z,67.50
2023-02-06T23:33:51.715Z,67.60
2023-02-06T23:38:56.834Z,67.70
2023-02-06T23:44:02.305Z,67.80
2023-02-06T23:49:06.416Z,68.00
2023-02-06T23:54:11.634Z,68.10
2023-02-06T23:59:15.390Z,68.20
